createdAt,value
2018-09-22T00:01:23.426Z,1.87
2018-09-22T00:03:50.907Z,1.50
2018-09-22T00:06:18.329Z,1.50
2018-09-22T00:08:45.729Z,1.60
2018-09-22T00:11:13.178Z,1.50
2018-09-22T00:13:40.618Z,1.60
2018-09-22T00:16:08.046Z,2.00
2018-09-22T00:18:35.478Z,1.90
2018-09-22T00:21:02.926Z,1.40
2018-09-22T00:23:30.341Z,1.83
2018-09-22T00:25:57.789Z,1.70
2018-09-22T00:28:25.219Z,1.20
2018-09-22T00:30:52.640Z,1.80
2018-09-22T00:33:20.043Z,1.60
2018-09-22T00:35:47.482Z,1.50
2018-09-22T00:38:14.903Z,1.30
2018-09-22T00:40:42.327Z,1.37
2018-09-22T00:43:09.717Z,1.47
2018-09-22T00:45:37.183Z,1.50
2018-09-22T00:48:04.578Z,1.30
2018-09-22T00:50:32.104Z,1.67
2018-09-22T00:52:59.463Z,1.50
2018-09-22T00:55:26.888Z,1.37
2018-09-22T00:57:54.274Z,1.30
2018-09-22T01:00:21.657Z,1.57
2018-09-22T01:02:49.077Z,1.13
2018-09-22T01:05:16.544Z,1.40
2018-09-22T01:07:43.923Z,1.50
2018-09-22T01:10:11.353Z,1.50
2018-09-22T01:12:38.745Z,1.30
2018-09-22T01:15:06.175Z,1.30
2018-09-22T01:17:33.583Z,1.10
2018-09-22T01:20:00.976Z,1.50
2018-09-22T01:22:28.374Z,1.20
2018-09-22T01:24:55.863Z,1.30
2018-09-22T01:27:23.263Z,1.30
2018-09-22T01:29:50.648Z,1.10
2018-09-22T01:32:18.028Z,1.33
2018-09-22T01:34:45.412Z,1.20
2018-09-22T01:37:12.807Z,1.57
2018-09-22T01:39:40.253Z,0.80
2018-09-22T01:42:07.647Z,1.50
2018-09-22T01:44:35.090Z,1.10
2018-09-22T01:47:02.511Z,1.10
2018-09-22T01:49:29.868Z,1.20
2018-09-22T01:51:57.234Z,1.37
2018-09-22T01:54:24.643Z,1.10
2018-09-22T01:56:52.088Z,1.23
2018-09-22T01:59:19.463Z,1.30
2018-09-22T02:01:46.878Z,1.37
2018-09-22T02:04:14.242Z,0.93
2018-09-22T02:06:41.663Z,1.23
2018-09-22T02:09:09.722Z,1.10
2018-09-22T02:11:37.112Z,1.30
2018-09-22T02:14:04.483Z,1.30
2018-09-22T02:16:31.903Z,1.20
2018-09-22T02:18:59.318Z,1.23
2018-09-22T02:21:26.719Z,1.40
2018-09-22T02:23:54.164Z,1.00
2018-09-22T02:26:21.627Z,1.30
2018-09-22T02:28:49.077Z,1.30
2018-09-22T02:31:16.482Z,1.13
2018-09-22T02:33:43.867Z,1.33
2018-09-22T02:36:11.344Z,1.13
2018-09-22T02:38:38.723Z,1.27
2018-09-22T02:41:06.113Z,1.10
2018-09-22T02:43:33.537Z,0.97
2018-09-22T02:46:00.912Z,1.10
2018-09-22T02:48:28.312Z,1.00
2018-09-22T02:50:55.714Z,1.20
2018-09-22T02:53:23.148Z,1.30
2018-09-22T02:55:50.546Z,1.27
2018-09-22T02:58:18.019Z,1.50
2018-09-22T03:00:45.407Z,1.60
2018-09-22T03:03:12.787Z,1.43
2018-09-22T03:05:40.287Z,1.50
2018-09-22T03:08:07.675Z,1.53
2018-09-22T03:10:35.080Z,1.00
2018-09-22T03:13:02.479Z,1.53
2018-09-22T03:15:29.947Z,1.10
2018-09-22T03:17:57.304Z,1.27
2018-09-22T03:20:24.715Z,1.30
2018-09-22T03:22:52.084Z,1.20
2018-09-22T03:25:19.505Z,1.60
2018-09-22T03:27:46.891Z,1.30
2018-09-22T03:30:14.283Z,1.30
2018-09-22T03:32:41.745Z,1.30
2018-09-22T03:35:09.164Z,1.20
2018-09-22T03:37:36.561Z,1.30
2018-09-22T03:40:04.072Z,1.10
2018-09-22T03:42:31.484Z,1.20
2018-09-22T03:44:58.883Z,1.33
2018-09-22T03:47:26.288Z,1.60
2018-09-22T03:49:53.684Z,1.13
2018-09-22T03:52:21.084Z,1.43
2018-09-22T03:54:48.454Z,1.70
2018-09-22T03:57:15.838Z,1.50
2018-09-22T03:59:43.308Z,1.53
2018-09-22T04:02:10.728Z,1.30
2018-09-22T04:04:38.247Z,1.40
2018-09-22T04:07:05.745Z,1.30
2018-09-22T04:09:33.148Z,1.23
2018-09-22T04:12:00.567Z,1.27
2018-09-22T04:14:27.978Z,1.30
2018-09-22T04:16:55.367Z,1.50
2018-09-22T04:19:22.774Z,1.00
2018-09-22T04:21:50.162Z,1.27
2018-09-22T04:24:18.458Z,1.57
2018-09-22T04:26:46.995Z,1.20
2018-09-22T04:29:14.379Z,1.60
2018-09-22T04:31:41.785Z,1.63
2018-09-22T04:34:09.384Z,1.20
2018-09-22T04:36:36.782Z,1.30
2018-09-22T04:39:05.899Z,1.30
2018-09-22T04:41:33.379Z,1.20
2018-09-22T04:44:00.768Z,1.10
2018-09-22T04:46:28.182Z,1.20
2018-09-22T04:48:55.576Z,1.27
2018-09-22T04:51:22.991Z,1.60
2018-09-22T04:53:50.371Z,1.40
2018-09-22T04:56:17.785Z,1.10
2018-09-22T04:58:45.214Z,1.40
2018-09-22T05:01:12.612Z,1.67
2018-09-22T05:03:40.050Z,1.10
2018-09-22T05:06:07.448Z,1.50
2018-09-22T05:08:34.862Z,1.40
2018-09-22T05:11:02.309Z,1.33
2018-09-22T05:13:29.742Z,1.57
2018-09-22T05:15:57.213Z,1.50
2018-09-22T05:18:24.655Z,1.60
2018-09-22T05:20:52.043Z,1.37
2018-09-22T05:23:19.459Z,1.73
2018-09-22T05:25:46.840Z,1.30
2018-09-22T05:28:14.334Z,1.13
2018-09-22T05:30:41.719Z,1.20
2018-09-22T05:33:09.165Z,1.40
2018-09-22T05:35:36.555Z,1.43
2018-09-22T05:38:03.939Z,1.40
2018-09-22T05:40:31.348Z,1.30
2018-09-22T05:42:58.762Z,1.40
2018-09-22T05:45:26.214Z,1.57
2018-09-22T05:47:53.685Z,1.50
2018-09-22T05:50:21.082Z,1.43
2018-09-22T05:52:48.496Z,1.17
2018-09-22T05:55:15.901Z,1.33
2018-09-22T05:57:43.319Z,1.60
2018-09-22T06:00:10.719Z,1.30
2018-09-22T06:02:38.145Z,1.53
2018-09-22T06:05:05.609Z,1.50
2018-09-22T06:07:33.051Z,1.67
2018-09-22T06:10:00.504Z,1.50
2018-09-22T06:12:27.924Z,1.50
2018-09-22T06:14:55.309Z,1.80
2018-09-22T06:17:22.730Z,1.80
2018-09-22T06:19:50.142Z,1.50
2018-09-22T06:22:17.560Z,1.80
2018-09-22T06:24:44.965Z,1.73
2018-09-22T06:27:12.430Z,1.90
2018-09-22T06:29:39.821Z,1.73
2018-09-22T06:32:07.265Z,1.83
2018-09-22T06:34:34.698Z,1.80
2018-09-22T06:37:02.161Z,1.70
2018-09-22T06:39:29.554Z,1.90
2018-09-22T06:41:56.940Z,1.60
2018-09-22T06:44:24.352Z,1.43
2018-09-22T06:46:51.744Z,1.50
2018-09-22T06:49:19.143Z,1.43
2018-09-22T06:51:46.560Z,1.50
2018-09-22T06:54:13.985Z,1.73
2018-09-22T06:56:41.371Z,1.80
2018-09-22T06:59:08.815Z,1.77
2018-09-22T07:01:36.208Z,1.80
2018-09-22T07:04:03.664Z,1.83
2018-09-22T07:06:31.201Z,1.60
2018-09-22T07:08:58.548Z,1.57
2018-09-22T07:11:26.079Z,1.67
2018-09-22T07:13:53.468Z,1.60
2018-09-22T07:16:20.868Z,1.47
2018-09-22T07:18:48.275Z,2.10
2018-09-22T07:21:15.705Z,1.80
2018-09-22T07:23:43.074Z,1.60
2018-09-22T07:26:10.550Z,2.20
2018-09-22T07:28:38.008Z,2.40
2018-09-22T07:31:05.823Z,1.90
2018-09-22T07:33:33.245Z,2.80
2018-09-22T07:36:00.686Z,4.80
2018-09-22T07:38:28.099Z,3.60
2018-09-22T07:40:55.536Z,3.00
2018-09-22T07:43:22.944Z,2.10
2018-09-22T07:45:50.522Z,1.93
2018-09-22T07:48:17.858Z,1.63
2018-09-22T07:50:45.279Z,2.00
2018-09-22T07:53:12.693Z,1.60
2018-09-22T07:55:40.106Z,1.57
2018-09-22T07:58:07.600Z,1.53
2018-09-22T08:00:35.080Z,1.33
2018-09-22T08:03:02.474Z,1.33
2018-09-22T08:05:29.869Z,1.67
2018-09-22T08:07:57.309Z,1.23
2018-09-22T08:10:24.670Z,1.40
2018-09-22T08:12:52.064Z,1.43
2018-09-22T08:15:19.486Z,1.83
2018-09-22T08:17:46.909Z,1.60
2018-09-22T08:20:14.359Z,1.33
2018-09-22T08:22:41.776Z,1.50
2018-09-22T08:25:09.273Z,1.37
2018-09-22T08:27:36.629Z,1.27
2018-09-22T08:30:04.851Z,1.50
2018-09-22T08:32:32.327Z,1.40
2018-09-22T08:34:59.726Z,1.20
2018-09-22T08:37:27.174Z,1.40
2018-09-22T08:39:54.577Z,1.40
2018-09-22T08:42:21.999Z,1.70
2018-09-22T08:44:49.437Z,1.03
2018-09-22T08:47:16.844Z,1.87
2018-09-22T08:49:44.375Z,1.60
2018-09-22T08:52:11.710Z,1.37
2018-09-22T08:54:39.119Z,1.17
2018-09-22T08:57:06.531Z,1.07
2018-09-22T08:59:33.949Z,1.43
2018-09-22T09:02:01.412Z,1.37
2018-09-22T09:04:28.976Z,1.50
2018-09-22T09:06:56.459Z,1.80
2018-09-22T09:09:23.826Z,1.13
2018-09-22T09:11:51.209Z,1.80
2018-09-22T09:14:18.627Z,1.10
2018-09-22T09:16:46.031Z,1.23
2018-09-22T09:19:13.445Z,1.50
2018-09-22T09:21:40.891Z,1.80
2018-09-22T09:24:08.315Z,1.17
2018-09-22T09:26:35.720Z,1.30
2018-09-22T09:29:03.156Z,1.30
2018-09-22T09:31:30.551Z,1.43
2018-09-22T09:33:57.960Z,1.23
2018-09-22T09:36:25.354Z,1.00
2018-09-22T09:38:56.761Z,1.30
2018-09-22T09:41:24.210Z,1.47
2018-09-22T09:43:52.071Z,1.20
2018-09-22T09:46:19.657Z,1.17
2018-09-22T09:48:47.080Z,1.30
2018-09-22T09:51:14.485Z,1.00
2018-09-22T09:53:41.940Z,1.30
2018-09-22T09:56:09.377Z,1.10
2018-09-22T09:58:36.772Z,1.10
2018-09-22T10:01:04.214Z,1.07
2018-09-22T10:03:31.608Z,1.27
2018-09-22T10:05:59.040Z,1.20
2018-09-22T10:08:26.424Z,1.00
2018-09-22T10:10:53.851Z,1.00
2018-09-22T10:13:21.259Z,1.47
2018-09-22T10:15:48.667Z,1.80
2018-09-22T10:18:16.101Z,0.90
2018-09-22T10:20:43.520Z,1.20
2018-09-22T10:23:10.945Z,1.10
2018-09-22T10:25:38.340Z,1.10
2018-09-22T10:28:05.836Z,1.03
2018-09-22T10:30:33.233Z,1.20
2018-09-22T10:33:00.631Z,1.57
2018-09-22T10:35:28.024Z,1.13
2018-09-22T10:37:55.440Z,1.27
2018-09-22T10:40:22.885Z,0.70
2018-09-22T10:42:50.280Z,1.50
2018-09-22T10:45:17.707Z,1.03
2018-09-22T10:47:45.192Z,1.10
2018-09-22T10:50:12.582Z,0.77
2018-09-22T10:52:40.166Z,0.93
2018-09-22T10:55:07.527Z,1.00
2018-09-22T10:57:34.955Z,1.20
2018-09-22T11:00:02.330Z,1.00
2018-09-22T11:02:29.770Z,0.93
2018-09-22T11:04:57.217Z,0.90
2018-09-22T11:07:24.654Z,1.00
2018-09-22T11:09:52.102Z,1.00
2018-09-22T11:12:19.632Z,1.23
2018-09-22T11:14:47.092Z,0.97
2018-09-22T11:17:14.522Z,0.80
2018-09-22T11:19:41.940Z,1.03
2018-09-22T11:22:09.352Z,0.90
2018-09-22T11:24:36.750Z,1.23
2018-09-22T11:27:04.243Z,1.10
2018-09-22T11:29:31.615Z,0.90
2018-09-22T11:31:59.044Z,0.80
2018-09-22T11:34:26.522Z,1.00
2018-09-22T11:36:53.955Z,1.23
2018-09-22T11:39:21.350Z,1.00
2018-09-22T11:41:48.759Z,1.00
2018-09-22T11:44:16.222Z,0.87
2018-09-22T11:46:43.655Z,0.90
2018-09-22T11:49:11.004Z,0.90
2018-09-22T11:51:38.441Z,0.90
2018-09-22T11:54:05.864Z,1.50
2018-09-22T11:56:33.381Z,1.20
2018-09-22T11:59:00.777Z,1.13
2018-09-22T12:01:28.237Z,1.00
2018-09-22T12:03:55.757Z,1.20
2018-09-22T12:06:23.515Z,0.83
2018-09-22T12:08:50.895Z,0.97
2018-09-22T12:11:18.371Z,0.70
2018-09-22T12:13:45.813Z,0.83
2018-09-22T12:16:13.252Z,1.20
2018-09-22T12:18:40.701Z,0.83
2018-09-22T12:21:08.102Z,1.00
2018-09-22T12:23:35.537Z,0.87
2018-09-22T12:26:02.962Z,0.97
2018-09-22T12:28:30.368Z,0.70
2018-09-22T12:30:57.821Z,0.90
2018-09-22T12:33:25.236Z,1.00
2018-09-22T12:35:52.672Z,0.80
2018-09-22T12:38:20.101Z,1.20
2018-09-22T12:40:47.573Z,1.40
2018-09-22T12:43:15.011Z,0.80
2018-09-22T12:45:42.415Z,1.50
2018-09-22T12:48:09.835Z,1.10
2018-09-22T12:50:37.273Z,0.97
2018-09-22T12:53:04.694Z,0.70
2018-09-22T12:55:32.141Z,0.90
2018-09-22T12:57:59.556Z,1.00
2018-09-22T13:00:26.981Z,1.10
2018-09-22T13:02:54.381Z,0.70
2018-09-22T13:05:21.841Z,0.87
2018-09-22T13:07:49.532Z,0.70
2018-09-22T13:10:16.986Z,1.30
2018-09-22T13:12:44.641Z,0.87
2018-09-22T13:15:12.057Z,1.10
2018-09-22T13:17:39.452Z,0.80
2018-09-22T13:20:06.904Z,0.93
2018-09-22T13:22:34.321Z,1.00
2018-09-22T13:25:01.770Z,1.00
2018-09-22T13:27:29.195Z,0.90
2018-09-22T13:29:56.601Z,0.93
2018-09-22T13:32:24.025Z,0.80
2018-09-22T13:34:51.435Z,1.10
2018-09-22T13:37:18.905Z,1.00
2018-09-22T13:39:46.329Z,0.67
2018-09-22T13:42:13.746Z,0.90
2018-09-22T13:44:41.136Z,0.80
2018-09-22T13:47:08.576Z,1.00
2018-09-22T13:49:36.000Z,0.93
2018-09-22T13:52:03.435Z,0.80
2018-09-22T13:54:30.887Z,0.80
2018-09-22T13:56:58.306Z,1.20
2018-09-22T13:59:25.717Z,0.80
2018-09-22T14:01:53.142Z,0.93
2018-09-22T14:04:20.577Z,0.90
2018-09-22T14:06:47.968Z,1.13
2018-09-22T14:09:15.405Z,1.00
2018-09-22T14:11:42.832Z,1.00
2018-09-22T14:14:10.291Z,1.00
2018-09-22T14:16:37.676Z,1.03
2018-09-22T14:19:05.132Z,1.30
2018-09-22T14:21:32.537Z,0.97
2018-09-22T14:24:00.038Z,0.80
2018-09-22T14:26:27.428Z,1.00
2018-09-22T14:28:54.891Z,1.20
2018-09-22T14:31:22.279Z,0.93
2018-09-22T14:33:49.727Z,1.10
2018-09-22T14:36:17.169Z,0.80
2018-09-22T14:38:44.608Z,1.10
2018-09-22T14:41:12.032Z,1.00
2018-09-22T14:43:39.507Z,1.03
2018-09-22T14:46:07.264Z,1.17
2018-09-22T14:48:36.202Z,1.00
2018-09-22T14:51:05.596Z,1.00
2018-09-22T14:53:33.132Z,1.23
2018-09-22T14:56:00.676Z,1.17
2018-09-22T14:58:28.139Z,0.80
2018-09-22T15:00:55.548Z,1.00
2018-09-22T15:03:23.026Z,0.77
2018-09-22T15:05:50.499Z,0.90
2018-09-22T15:08:18.007Z,1.00
2018-09-22T15:10:45.468Z,1.30
2018-09-22T15:13:12.863Z,1.03
2018-09-22T15:15:40.348Z,0.90
2018-09-22T15:18:07.822Z,1.07
2018-09-22T15:20:35.267Z,1.00
2018-09-22T15:23:02.667Z,1.10
2018-09-22T15:25:30.092Z,0.90
2018-09-22T15:27:57.493Z,1.10
2018-09-22T15:30:24.971Z,0.87
2018-09-22T15:32:52.379Z,1.00
2018-09-22T15:35:19.852Z,1.30
2018-09-22T15:37:47.228Z,1.50
2018-09-22T15:40:14.652Z,1.10
2018-09-22T15:42:42.121Z,1.20
2018-09-22T15:45:09.656Z,1.13
2018-09-22T15:47:37.272Z,1.10
2018-09-22T15:50:04.810Z,1.00
2018-09-22T15:52:32.228Z,1.13
2018-09-22T15:54:59.583Z,1.00
2018-09-22T15:57:26.968Z,1.30
2018-09-22T15:59:54.373Z,1.20
2018-09-22T16:02:21.771Z,1.97
2018-09-22T16:04:49.248Z,3.60
2018-09-22T16:07:16.719Z,7.93
2018-09-22T16:09:44.153Z,5.30
2018-09-22T16:12:15.571Z,2.70
2018-09-22T16:14:43.017Z,4.03
2018-09-22T16:17:10.417Z,6.17
2018-09-22T16:19:37.923Z,2.37
2018-09-22T16:22:05.323Z,1.20
2018-09-22T16:24:32.803Z,1.10
2018-09-22T16:27:00.197Z,1.07
2018-09-22T16:29:27.714Z,1.10
2018-09-22T16:31:55.123Z,0.90
2018-09-22T16:34:22.558Z,1.07
2018-09-22T16:36:50.019Z,1.07
2018-09-22T16:39:17.469Z,1.17
2018-09-22T16:41:44.911Z,0.90
2018-09-22T16:44:12.307Z,1.37
2018-09-22T16:46:39.761Z,1.00
2018-09-22T16:49:07.259Z,2.47
2018-09-22T16:51:34.715Z,1.10
2018-09-22T16:54:02.149Z,1.00
2018-09-22T16:56:29.621Z,1.30
2018-09-22T16:58:57.068Z,1.10
2018-09-22T17:01:24.509Z,1.20
2018-09-22T17:03:51.961Z,1.33
2018-09-22T17:06:19.506Z,1.80
2018-09-22T17:08:47.041Z,1.40
2018-09-22T17:11:14.478Z,1.53
2018-09-22T17:13:41.918Z,1.40
2018-09-22T17:16:09.395Z,1.57
2018-09-22T17:18:36.822Z,1.70
2018-09-22T17:21:04.319Z,13.30
2018-09-22T17:23:31.742Z,2.90
2018-09-22T17:25:59.211Z,2.23
2018-09-22T17:28:26.664Z,1.50
2018-09-22T17:30:54.068Z,2.17
2018-09-22T17:33:21.556Z,2.10
2018-09-22T17:35:48.978Z,1.97
2018-09-22T17:38:16.687Z,1.40
2018-09-22T17:40:44.116Z,1.70
2018-09-22T17:43:11.632Z,1.53
2018-09-22T17:45:39.158Z,1.67
2018-09-22T17:48:06.597Z,1.67
2018-09-22T17:50:34.013Z,1.10
2018-09-22T17:53:01.495Z,1.62
2018-09-22T17:55:28.870Z,1.90
2018-09-22T17:57:56.303Z,1.87
2018-09-22T18:00:23.739Z,2.00
2018-09-22T18:02:51.237Z,2.03
2018-09-22T18:05:18.667Z,2.30
2018-09-22T18:07:46.083Z,2.00
2018-09-22T18:10:13.532Z,2.10
2018-09-22T18:12:40.973Z,2.17
2018-09-22T18:15:08.123Z,1.70
2018-09-22T18:17:35.524Z,1.70
2018-09-22T18:20:03.058Z,1.70
2018-09-22T18:22:30.482Z,1.43
2018-09-22T18:24:57.926Z,1.60
2018-09-22T18:27:25.384Z,1.60
2018-09-22T18:29:52.895Z,1.40
2018-09-22T18:32:20.364Z,1.60
2018-09-22T18:34:47.870Z,1.73
2018-09-22T18:37:15.363Z,1.33
2018-09-22T18:39:42.847Z,1.30
2018-09-22T18:42:10.275Z,1.70
2018-09-22T18:44:37.716Z,1.87
2018-09-22T18:47:05.169Z,1.67
2018-09-22T18:49:32.654Z,1.50
2018-09-22T18:52:00.096Z,2.43
2018-09-22T18:54:27.533Z,3.43
2018-09-22T18:56:54.957Z,3.10
2018-09-22T18:59:22.461Z,9.80
2018-09-22T19:01:49.872Z,9.63
2018-09-22T19:04:17.304Z,6.83
2018-09-22T19:06:44.804Z,6.10
2018-09-22T19:09:12.294Z,4.50
2018-09-22T19:11:39.922Z,2.17
2018-09-22T19:14:11.319Z,2.50
2018-09-22T19:16:43.389Z,3.77
2018-09-22T19:19:14.345Z,2.33
2018-09-22T19:21:46.788Z,3.30
2018-09-22T19:24:29.564Z,4.40
2018-09-22T19:27:01.774Z,4.73
2018-09-22T19:30:35.244Z,6.30
2018-09-22T19:33:07.902Z,11.97
2018-09-22T19:35:38.745Z,19.90
2018-09-22T19:38:13.779Z,20.63
2018-09-22T19:40:46.429Z,9.33
2018-09-22T19:43:19.792Z,8.23
2018-09-22T19:45:49.459Z,2.20
2018-09-22T19:48:38.721Z,2.40
2018-09-22T19:51:09.985Z,2.10
2018-09-22T19:53:39.554Z,2.53
2018-09-22T19:56:07.060Z,3.00
2018-09-22T19:58:34.564Z,4.10
2018-09-22T20:01:02.620Z,3.33
2018-09-22T20:03:30.995Z,2.30
2018-09-22T20:05:59.260Z,2.07
2018-09-22T20:08:26.750Z,2.33
2018-09-22T20:10:54.227Z,3.40
2018-09-22T20:13:21.725Z,4.27
2018-09-22T20:15:49.259Z,2.93
2018-09-22T20:18:17.219Z,2.20
2018-09-22T20:20:44.678Z,10.67
2018-09-22T20:23:12.838Z,7.50
2018-09-22T20:25:40.313Z,3.33
2018-09-22T20:28:07.797Z,2.60
2018-09-22T20:30:35.827Z,4.00
2018-09-22T20:33:03.893Z,3.43
2018-09-22T20:35:32.130Z,3.13
2018-09-22T20:37:59.549Z,4.30
2018-09-22T20:40:27.629Z,4.73
2018-09-22T20:42:55.582Z,6.40
2018-09-22T20:45:23.385Z,9.43
2018-09-22T20:47:51.028Z,11.93
2018-09-22T20:50:18.529Z,20.40
2018-09-22T20:52:45.948Z,9.00
2018-09-22T20:55:13.581Z,7.03
2018-09-22T20:57:41.622Z,5.53
2018-09-22T21:00:10.336Z,5.10
2018-09-22T21:02:38.733Z,3.60
2018-09-22T21:05:06.909Z,4.53
2018-09-22T21:07:35.850Z,2.50
2018-09-22T21:10:04.487Z,3.73
2018-09-22T21:12:31.947Z,4.70
2018-09-22T21:14:59.478Z,2.90
2018-09-22T21:17:26.945Z,2.43
2018-09-22T21:19:54.380Z,4.40
2018-09-22T21:22:26.068Z,6.93
2018-09-22T21:24:53.548Z,4.53
2018-09-22T21:27:20.979Z,2.67
2018-09-22T21:29:48.499Z,2.60
2018-09-22T21:32:15.933Z,2.63
2018-09-22T21:34:43.358Z,2.70
2018-09-22T21:37:10.868Z,2.33
2018-09-22T21:39:38.266Z,2.20
2018-09-22T21:42:14.050Z,2.30
2018-09-22T21:44:41.533Z,2.50
2018-09-22T21:47:08.972Z,2.72
2018-09-22T21:49:36.420Z,2.40
2018-09-22T21:52:03.849Z,2.20
2018-09-22T21:54:31.302Z,2.00
2018-09-22T21:56:58.759Z,2.60
2018-09-22T21:59:26.180Z,2.30
2018-09-22T22:01:53.624Z,1.80
2018-09-22T22:04:21.055Z,2.23
2018-09-22T22:06:48.598Z,2.70
2018-09-22T22:09:16.021Z,2.50
2018-09-22T22:11:43.519Z,1.97
2018-09-22T22:14:11.007Z,1.97
2018-09-22T22:16:39.118Z,2.70
2018-09-22T22:19:06.693Z,2.00
2018-09-22T22:21:34.248Z,2.00
2018-09-22T22:24:01.654Z,2.40
2018-09-22T22:26:29.209Z,2.10
2018-09-22T22:28:56.665Z,2.23
2018-09-22T22:31:24.147Z,2.13
2018-09-22T22:33:52.213Z,1.33
2018-09-22T22:36:20.212Z,1.57
2018-09-22T22:38:47.718Z,1.60
2018-09-22T22:41:15.285Z,1.70
2018-09-22T22:43:42.768Z,1.83
2018-09-22T22:46:10.403Z,1.60
2018-09-22T22:48:37.803Z,1.90
2018-09-22T22:51:05.553Z,1.40
2018-09-22T22:53:33.065Z,3.10
2018-09-22T22:56:00.492Z,2.20
2018-09-22T22:58:27.943Z,1.90
2018-09-22T23:00:55.360Z,2.17
2018-09-22T23:03:22.834Z,2.33
2018-09-22T23:05:50.298Z,1.80
2018-09-22T23:08:17.756Z,2.10
2018-09-22T23:10:45.214Z,1.90
2018-09-22T23:13:12.724Z,2.40
2018-09-22T23:15:40.167Z,2.10
2018-09-22T23:18:07.588Z,1.90
2018-09-22T23:20:35.144Z,1.93
2018-09-22T23:23:02.579Z,2.13
2018-09-22T23:25:29.961Z,2.67
2018-09-22T23:27:57.315Z,2.03
2018-09-22T23:30:24.773Z,2.23
2018-09-22T23:32:52.198Z,1.70
2018-09-22T23:35:19.669Z,1.80
2018-09-22T23:37:47.025Z,1.70
2018-09-22T23:40:14.489Z,1.40
2018-09-22T23:42:41.920Z,1.67
2018-09-22T23:45:09.359Z,1.73
2018-09-22T23:47:38.573Z,1.90
2018-09-22T23:50:06.039Z,1.90
2018-09-22T23:52:33.465Z,2.07
2018-09-22T23:55:00.939Z,1.80
2018-09-22T23:57:28.333Z,1.90
2018-09-22T23:59:55.744Z,1.90
